sensor_id;sensor_type;location;lat;lon;timestamp;pressure;altitude;pressure_sealevel;temperature;humidity
72465;BME280;60471;52.150;4.508;2023-04-22T00:01:33;100579.50;;;10.70;81.30
72465;BME280;60471;52.150;4.508;2023-04-22T00:03:59;100588.38;;;10.69;81.02
72465;BME280;60471;52.150;4.508;2023-04-22T00:06:26;100583.19;;;10.50;81.26
72465;BME280;60471;52.150;4.508;2023-04-22T00:08:52;100582.50;;;10.47;81.24
72465;BME280;60471;52.150;4.508;2023-04-22T00:11:19;100586.69;;;10.33;81.35
72465;BME280;60471;52.150;4.508;2023-04-22T00:13:45;100584.44;;;10.43;80.74
72465;BME280;60471;52.150;4.508;2023-04-22T00:16:11;100580.16;;;10.40;80.61
72465;BME280;60471;52.150;4.508;2023-04-22T00:18:37;100580.41;;;10.36;80.94
72465;BME280;60471;52.150;4.508;2023-04-22T00:21:04;100584.38;;;10.27;81.13
72465;BME280;60471;52.150;4.508;2023-04-22T00:23:31;100590.97;;;10.36;80.88
72465;BME280;60471;52.150;4.508;2023-04-22T00:25:57;100590.66;;;10.25;80.93
72465;BME280;60471;52.150;4.508;2023-04-22T00:28:23;100586.81;;;10.13;81.52
72465;BME280;60471;52.150;4.508;2023-04-22T00:30:49;100585.63;;;10.18;81.34
72465;BME280;60471;52.150;4.508;2023-04-22T00:33:15;100591.44;;;10.08;81.03
72465;BME280;60471;52.150;4.508;2023-04-22T00:35:42;100590.50;;;10.09;81.56
72465;BME280;60471;52.150;4.508;2023-04-22T00:38:10;100592.78;;;9.99;81.89
72465;BME280;60471;52.150;4.508;2023-04-22T00:40:37;100586.72;;;9.97;82.49
72465;BME280;60471;52.150;4.508;2023-04-22T00:43:03;100589.09;;;9.84;82.61
72465;BME280;60471;52.150;4.508;2023-04-22T00:45:30;100592.25;;;9.74;83.38
72465;BME280;60471;52.150;4.508;2023-04-22T00:47:56;100598.53;;;9.71;84.18
72465;BME280;60471;52.150;4.508;2023-04-22T00:50:23;100596.59;;;9.75;83.68
72465;BME280;60471;52.150;4.508;2023-04-22T00:52:49;100597.41;;;9.77;84.01
72465;BME280;60471;52.150;4.508;2023-04-22T00:55:15;100598.25;;;9.77;83.64
72465;BME280;60471;52.150;4.508;2023-04-22T00:57:42;100593.97;;;9.75;83.63
72465;BME280;60471;52.150;4.508;2023-04-22T01:00:08;100598.28;;;9.76;83.79
72465;BME280;60471;52.150;4.508;2023-04-22T01:02:36;100592.34;;;9.72;83.94
72465;BME280;60471;52.150;4.508;2023-04-22T01:05:04;100590.06;;;9.65;83.89
72465;BME280;60471;52.150;4.508;2023-04-22T01:07:31;100593.78;;;9.61;83.75
72465;BME280;60471;52.150;4.508;2023-04-22T01:09:57;100591.84;;;9.64;84.05
72465;BME280;60471;52.150;4.508;2023-04-22T01:12:24;100597.63;;;9.53;83.99
72465;BME280;60471;52.150;4.508;2023-04-22T01:14:50;100598.28;;;9.58;84.60
72465;BME280;60471;52.150;4.508;2023-04-22T01:17:17;100604.38;;;9.59;83.88
72465;BME280;60471;52.150;4.508;2023-04-22T01:19:44;100600.19;;;9.55;84.27
72465;BME280;60471;52.150;4.508;2023-04-22T01:22:12;100604.53;;;9.37;84.87
72465;BME280;60471;52.150;4.508;2023-04-22T01:24:39;100600.63;;;9.46;85.06
72465;BME280;60471;52.150;4.508;2023-04-22T01:27:06;100600.63;;;9.46;84.72
72465;BME280;60471;52.150;4.508;2023-04-22T01:29:36;100596.69;;;9.54;84.40
72465;BME280;60471;52.150;4.508;2023-04-22T01:32:03;100597.94;;;9.47;84.66
72465;BME280;60471;52.150;4.508;2023-04-22T01:34:30;100595.72;;;9.38;84.69
72465;BME280;60471;52.150;4.508;2023-04-22T01:36:57;100591.22;;;9.40;85.05
72465;BME280;60471;52.150;4.508;2023-04-22T01:39:23;100587.25;;;9.50;84.66
72465;BME280;60471;52.150;4.508;2023-04-22T01:41:50;100591.66;;;9.50;84.64
72465;BME280;60471;52.150;4.508;2023-04-22T01:44:16;100589.25;;;9.45;84.84
72465;BME280;60471;52.150;4.508;2023-04-22T01:46:44;100586.81;;;9.59;84.76
72465;BME280;60471;52.150;4.508;2023-04-22T01:49:10;100588.44;;;9.62;84.07
72465;BME280;60471;52.150;4.508;2023-04-22T01:51:37;100582.97;;;9.67;83.96
72465;BME280;60471;52.150;4.508;2023-04-22T01:54:03;100578.06;;;9.59;83.77
72465;BME280;60471;52.150;4.508;2023-04-22T01:56:30;100585.75;;;9.45;84.56
72465;BME280;60471;52.150;4.508;2023-04-22T01:58:56;100576.00;;;9.47;84.48
72465;BME280;60471;52.150;4.508;2023-04-22T02:01:22;100574.31;;;9.46;84.61
72465;BME280;60471;52.150;4.508;2023-04-22T02:03:49;100574.94;;;9.32;84.67
72465;BME280;60471;52.150;4.508;2023-04-22T02:06:15;100585.34;;;9.16;85.32
72465;BME280;60471;52.150;4.508;2023-04-22T02:08:41;100588.75;;;9.18;85.66
72465;BME280;60471;52.150;4.508;2023-04-22T02:11:08;100585.47;;;9.13;85.84
72465;BME280;60471;52.150;4.508;2023-04-22T02:13:38;100587.03;;;9.17;85.71
72465;BME280;60471;52.150;4.508;2023-04-22T02:16:06;100582.84;;;9.13;85.63
72465;BME280;60471;52.150;4.508;2023-04-22T02:18:33;100583.78;;;9.12;85.71
72465;BME280;60471;52.150;4.508;2023-04-22T02:20:59;100582.34;;;9.05;85.97
72465;BME280;60471;52.150;4.508;2023-04-22T02:23:26;100576.16;;;9.06;85.84
72465;BME280;60471;52.150;4.508;2023-04-22T02:25:53;100582.59;;;8.99;86.41
72465;BME280;60471;52.150;4.508;2023-04-22T02:28:20;100585.91;;;9.04;86.68
72465;BME280;60471;52.150;4.508;2023-04-22T02:30:47;100588.38;;;9.07;86.16
72465;BME280;60471;52.150;4.508;2023-04-22T02:33:13;100591.94;;;9.06;85.78
72465;BME280;60471;52.150;4.508;2023-04-22T02:35:39;100590.22;;;9.05;85.75
72465;BME280;60471;52.150;4.508;2023-04-22T02:38:06;100592.56;;;9.11;85.57
72465;BME280;60471;52.150;4.508;2023-04-22T02:40:32;100584.91;;;9.07;85.14
72465;BME280;60471;52.150;4.508;2023-04-22T02:42:59;100581.56;;;9.03;85.06
72465;BME280;60471;52.150;4.508;2023-04-22T02:45:25;100572.59;;;9.07;85.14
72465;BME280;60471;52.150;4.508;2023-04-22T02:47:51;100564.28;;;9.16;85.11
72465;BME280;60471;52.150;4.508;2023-04-22T02:50:17;100557.50;;;9.29;84.99
72465;BME280;60471;52.150;4.508;2023-04-22T02:52:43;100556.44;;;9.34;84.94
72465;BME280;60471;52.150;4.508;2023-04-22T02:55:10;100562.34;;;9.20;84.16
72465;BME280;60471;52.150;4.508;2023-04-22T02:57:36;100565.34;;;9.12;84.00
72465;BME280;60471;52.150;4.508;2023-04-22T03:00:03;100555.44;;;8.98;84.42
72465;BME280;60471;52.150;4.508;2023-04-22T03:02:30;100562.34;;;9.01;84.72
72465;BME280;60471;52.150;4.508;2023-04-22T03:04:56;100558.13;;;8.97;84.71
72465;BME280;60471;52.150;4.508;2023-04-22T03:07:22;100555.25;;;9.03;85.06
72465;BME280;60471;52.150;4.508;2023-04-22T03:09:48;100547.75;;;8.94;84.83
72465;BME280;60471;52.150;4.508;2023-04-22T03:12:14;100545.84;;;8.97;84.69
72465;BME280;60471;52.150;4.508;2023-04-22T03:14:41;100542.91;;;8.85;85.20
72465;BME280;60471;52.150;4.508;2023-04-22T03:17:07;100543.94;;;9.01;85.12
72465;BME280;60471;52.150;4.508;2023-04-22T03:19:33;100537.94;;;8.97;85.05
72465;BME280;60471;52.150;4.508;2023-04-22T03:21:59;100539.31;;;9.06;85.15
72465;BME280;60471;52.150;4.508;2023-04-22T03:24:25;100527.91;;;9.06;85.06
72465;BME280;60471;52.150;4.508;2023-04-22T03:26:51;100533.97;;;9.08;84.38
72465;BME280;60471;52.150;4.508;2023-04-22T03:29:18;100533.88;;;9.09;85.07
72465;BME280;60471;52.150;4.508;2023-04-22T03:31:44;100522.06;;;9.18;84.75
72465;BME280;60471;52.150;4.508;2023-04-22T03:34:10;100525.13;;;9.27;84.16
72465;BME280;60471;52.150;4.508;2023-04-22T03:36:36;100523.69;;;9.39;83.68
72465;BME280;60471;52.150;4.508;2023-04-22T03:39:03;100518.25;;;9.25;84.04
72465;BME280;60471;52.150;4.508;2023-04-22T03:41:29;100527.50;;;9.34;84.06
72465;BME280;60471;52.150;4.508;2023-04-22T03:43:56;100513.31;;;9.36;83.62
72465;BME280;60471;52.150;4.508;2023-04-22T03:46:22;100516.56;;;9.41;83.10
72465;BME280;60471;52.150;4.508;2023-04-22T03:48:48;100515.00;;;9.37;83.29
72465;BME280;60471;52.150;4.508;2023-04-22T03:51:14;100508.81;;;9.38;83.54
72465;BME280;60471;52.150;4.508;2023-04-22T03:53:40;100509.44;;;9.43;83.22
72465;BME280;60471;52.150;4.508;2023-04-22T03:56:07;100507.66;;;9.44;82.75
72465;BME280;60471;52.150;4.508;2023-04-22T03:58:33;100512.06;;;9.43;83.29
72465;BME280;60471;52.150;4.508;2023-04-22T04:00:59;100509.41;;;9.45;83.31
72465;BME280;60471;52.150;4.508;2023-04-22T04:03:25;100506.28;;;9.37;83.29
72465;BME280;60471;52.150;4.508;2023-04-22T04:05:51;100502.91;;;9.33;83.19
72465;BME280;60471;52.150;4.508;2023-04-22T04:08:18;100500.22;;;9.35;83.22
72465;BME280;60471;52.150;4.508;2023-04-22T04:10:44;100492.69;;;9.27;83.32
72465;BME280;60471;52.150;4.508;2023-04-22T04:13:10;100492.53;;;9.30;83.34
72465;BME280;60471;52.150;4.508;2023-04-22T04:15:37;100487.19;;;9.32;83.26
72465;BME280;60471;52.150;4.508;2023-04-22T04:18:03;100486.50;;;9.28;83.62
72465;BME280;60471;52.150;4.508;2023-04-22T04:20:30;100498.13;;;9.41;83.96
72465;BME280;60471;52.150;4.508;2023-04-22T04:22:56;100498.63;;;9.49;82.83
72465;BME280;60471;52.150;4.508;2023-04-22T04:25:22;100489.88;;;9.49;82.90
72465;BME280;60471;52.150;4.508;2023-04-22T04:27:48;100492.19;;;9.55;82.09
72465;BME280;60471;52.150;4.508;2023-04-22T04:30:16;100481.72;;;9.53;82.11
72465;BME280;60471;52.150;4.508;2023-04-22T04:32:42;100487.31;;;9.47;82.28
72465;BME280;60471;52.150;4.508;2023-04-22T04:35:10;100480.94;;;9.51;82.70
72465;BME280;60471;52.150;4.508;2023-04-22T04:37:41;100473.75;;;9.55;82.47
72465;BME280;60471;52.150;4.508;2023-04-22T04:40:08;100483.19;;;9.42;82.32
72465;BME280;60471;52.150;4.508;2023-04-22T04:42:37;100481.41;;;9.42;82.36
72465;BME280;60471;52.150;4.508;2023-04-22T04:45:03;100486.53;;;9.45;81.83
72465;BME280;60471;52.150;4.508;2023-04-22T04:47:29;100485.44;;;9.49;81.10
72465;BME280;60471;52.150;4.508;2023-04-22T04:49:59;100487.41;;;9.46;82.07
72465;BME280;60471;52.150;4.508;2023-04-22T04:52:29;100484.13;;;9.41;81.93
72465;BME280;60471;52.150;4.508;2023-04-22T04:54:56;100486.47;;;9.47;82.16
72465;BME280;60471;52.150;4.508;2023-04-22T04:57:22;100480.66;;;9.57;81.88
72465;BME280;60471;52.150;4.508;2023-04-22T04:59:48;100480.25;;;9.65;81.72
72465;BME280;60471;52.150;4.508;2023-04-22T05:02:15;100477.19;;;9.74;81.82
72465;BME280;60471;52.150;4.508;2023-04-22T05:04:41;100478.34;;;9.86;81.56
72465;BME280;60471;52.150;4.508;2023-04-22T05:07:07;100466.09;;;10.02;80.80
72465;BME280;60471;52.150;4.508;2023-04-22T05:09:33;100464.06;;;10.07;80.41
72465;BME280;60471;52.150;4.508;2023-04-22T05:12:03;100459.81;;;10.05;80.26
72465;BME280;60471;52.150;4.508;2023-04-22T05:14:29;100471.53;;;9.99;80.00
72465;BME280;60471;52.150;4.508;2023-04-22T05:16:55;100464.22;;;10.04;79.47
72465;BME280;60471;52.150;4.508;2023-04-22T05:19:21;100463.53;;;10.01;79.82
72465;BME280;60471;52.150;4.508;2023-04-22T05:21:48;100461.59;;;10.04;79.80
72465;BME280;60471;52.150;4.508;2023-04-22T05:24:14;100461.50;;;10.06;80.06
72465;BME280;60471;52.150;4.508;2023-04-22T05:26:40;100480.75;;;10.25;80.12
72465;BME280;60471;52.150;4.508;2023-04-22T05:29:07;100485.00;;;10.28;79.51
72465;BME280;60471;52.150;4.508;2023-04-22T05:31:33;100488.09;;;10.36;79.56
72465;BME280;60471;52.150;4.508;2023-04-22T05:33:59;100486.41;;;10.35;79.31
72465;BME280;60471;52.150;4.508;2023-04-22T05:36:25;100486.31;;;10.36;79.71
72465;BME280;60471;52.150;4.508;2023-04-22T05:38:52;100490.66;;;10.37;79.13
72465;BME280;60471;52.150;4.508;2023-04-22T05:41:18;100490.38;;;10.59;79.11
72465;BME280;60471;52.150;4.508;2023-04-22T05:43:44;100485.28;;;10.56;78.62
72465;BME280;60471;52.150;4.508;2023-04-22T05:46:11;100486.19;;;10.55;78.35
72465;BME280;60471;52.150;4.508;2023-04-22T05:48:37;100480.66;;;10.44;78.57
72465;BME280;60471;52.150;4.508;2023-04-22T05:51:03;100482.63;;;10.56;78.46
72465;BME280;60471;52.150;4.508;2023-04-22T05:53:30;100491.84;;;10.65;78.61
72465;BME280;60471;52.150;4.508;2023-04-22T05:55:56;100487.16;;;10.70;78.21
72465;BME280;60471;52.150;4.508;2023-04-22T05:58:22;100493.97;;;10.74;77.24
72465;BME280;60471;52.150;4.508;2023-04-22T06:00:48;100497.13;;;10.65;77.62
72465;BME280;60471;52.150;4.508;2023-04-22T06:03:14;100504.88;;;10.84;78.26
72465;BME280;60471;52.150;4.508;2023-04-22T06:05:41;100488.31;;;10.97;77.56
72465;BME280;60471;52.150;4.508;2023-04-22T06:08:09;100489.06;;;10.99;76.99
72465;BME280;60471;52.150;4.508;2023-04-22T06:10:35;100481.38;;;10.95;76.80
72465;BME280;60471;52.150;4.508;2023-04-22T06:13:02;100476.88;;;11.13;76.75
72465;BME280;60471;52.150;4.508;2023-04-22T06:15:28;100477.41;;;11.19;76.14
72465;BME280;60471;52.150;4.508;2023-04-22T06:17:54;100472.50;;;11.27;76.34
72465;BME280;60471;52.150;4.508;2023-04-22T06:20:21;100469.81;;;11.29;76.39
72465;BME280;60471;52.150;4.508;2023-04-22T06:22:47;100469.22;;;11.24;76.58
72465;BME280;60471;52.150;4.508;2023-04-22T06:25:13;100466.72;;;11.37;76.92
72465;BME280;60471;52.150;4.508;2023-04-22T06:27:39;100459.31;;;11.43;76.70
72465;BME280;60471;52.150;4.508;2023-04-22T06:30:06;100455.75;;;11.58;76.73
72465;BME280;60471;52.150;4.508;2023-04-22T06:32:33;100460.94;;;11.76;75.39
72465;BME280;60471;52.150;4.508;2023-04-22T06:34:59;100458.06;;;11.65;74.30
72465;BME280;60471;52.150;4.508;2023-04-22T06:37:25;100453.31;;;11.55;75.46
72465;BME280;60471;52.150;4.508;2023-04-22T06:39:51;100450.16;;;11.79;75.30
72465;BME280;60471;52.150;4.508;2023-04-22T06:42:18;100442.50;;;12.04;74.57
72465;BME280;60471;52.150;4.508;2023-04-22T06:44:44;100440.63;;;12.06;74.11
72465;BME280;60471;52.150;4.508;2023-04-22T06:47:10;100439.69;;;12.22;74.46
72465;BME280;60471;52.150;4.508;2023-04-22T06:49:36;100442.44;;;12.34;73.74
72465;BME280;60471;52.150;4.508;2023-04-22T06:52:04;100453.28;;;12.44;73.38
72465;BME280;60471;52.150;4.508;2023-04-22T06:54:31;100452.06;;;12.64;73.17
72465;BME280;60471;52.150;4.508;2023-04-22T06:56:57;100445.22;;;12.88;72.59
72465;BME280;60471;52.150;4.508;2023-04-22T06:59:24;100441.81;;;12.86;71.80
72465;BME280;60471;52.150;4.508;2023-04-22T07:01:50;100449.56;;;12.89;71.86
72465;BME280;60471;52.150;4.508;2023-04-22T07:04:16;100448.88;;;13.00;71.33
72465;BME280;60471;52.150;4.508;2023-04-22T07:06:42;100445.09;;;13.04;70.60
72465;BME280;60471;52.150;4.508;2023-04-22T07:09:08;100438.66;;;13.08;70.86
72465;BME280;60471;52.150;4.508;2023-04-22T07:11:35;100438.59;;;13.37;70.61
72465;BME280;60471;52.150;4.508;2023-04-22T07:14:01;100430.13;;;13.44;69.51
72465;BME280;60471;52.150;4.508;2023-04-22T07:16:27;100437.31;;;13.69;66.90
72465;BME280;60471;52.150;4.508;2023-04-22T07:18:53;100434.53;;;13.71;67.13
72465;BME280;60471;52.150;4.508;2023-04-22T07:21:20;100433.81;;;13.81;67.74
72465;BME280;60471;52.150;4.508;2023-04-22T07:23:46;100436.38;;;14.08;67.19
72465;BME280;60471;52.150;4.508;2023-04-22T07:26:12;100435.84;;;14.16;67.16
72465;BME280;60471;52.150;4.508;2023-04-22T07:28:39;100431.50;;;14.28;66.23
72465;BME280;60471;52.150;4.508;2023-04-22T07:31:05;100438.09;;;14.35;65.33
72465;BME280;60471;52.150;4.508;2023-04-22T07:33:31;100436.59;;;14.31;65.04
72465;BME280;60471;52.150;4.508;2023-04-22T07:35:57;100434.13;;;14.40;65.25
72465;BME280;60471;52.150;4.508;2023-04-22T07:38:24;100432.13;;;14.69;64.31
72465;BME280;60471;52.150;4.508;2023-04-22T07:40:50;100445.69;;;14.77;64.59
72465;BME280;60471;52.150;4.508;2023-04-22T07:43:17;100454.94;;;15.08;63.11
72465;BME280;60471;52.150;4.508;2023-04-22T07:45:43;100459.69;;;14.92;60.68
72465;BME280;60471;52.150;4.508;2023-04-22T07:48:09;100459.59;;;14.81;62.77
72465;BME280;60471;52.150;4.508;2023-04-22T07:50:36;100463.44;;;14.64;63.60
72465;BME280;60471;52.150;4.508;2023-04-22T07:53:02;100458.78;;;14.68;61.98
72465;BME280;60471;52.150;4.508;2023-04-22T07:55:28;100456.16;;;14.55;61.83
72465;BME280;60471;52.150;4.508;2023-04-22T07:57:54;100449.22;;;14.53;60.81
72465;BME280;60471;52.150;4.508;2023-04-22T08:00:20;100445.72;;;14.52;62.35
72465;BME280;60471;52.150;4.508;2023-04-22T08:02:47;100440.53;;;15.00;61.01
72465;BME280;60471;52.150;4.508;2023-04-22T08:05:13;100433.84;;;15.31;60.13
72465;BME280;60471;52.150;4.508;2023-04-22T08:07:39;100427.81;;;15.40;61.04
72465;BME280;60471;52.150;4.508;2023-04-22T08:10:06;100417.47;;;15.83;59.50
72465;BME280;60471;52.150;4.508;2023-04-22T08:12:33;100409.19;;;16.21;59.10
72465;BME280;60471;52.150;4.508;2023-04-22T08:15:00;100414.66;;;16.42;57.72
72465;BME280;60471;52.150;4.508;2023-04-22T08:17:26;100401.81;;;16.36;56.16
72465;BME280;60471;52.150;4.508;2023-04-22T08:19:52;100399.53;;;16.32;55.68
72465;BME280;60471;52.150;4.508;2023-04-22T08:22:18;100405.81;;;16.42;56.44
72465;BME280;60471;52.150;4.508;2023-04-22T08:24:45;100406.91;;;16.39;55.80
72465;BME280;60471;52.150;4.508;2023-04-22T08:27:11;100403.50;;;16.71;53.58
72465;BME280;60471;52.150;4.508;2023-04-22T08:29:37;100403.75;;;16.79;52.62
72465;BME280;60471;52.150;4.508;2023-04-22T08:32:03;100404.34;;;16.60;53.13
72465;BME280;60471;52.150;4.508;2023-04-22T08:34:30;100400.47;;;16.53;52.84
72465;BME280;60471;52.150;4.508;2023-04-22T08:36:56;100403.00;;;16.66;52.49
72465;BME280;60471;52.150;4.508;2023-04-22T08:39:22;100405.75;;;17.09;52.30
72465;BME280;60471;52.150;4.508;2023-04-22T08:41:49;100411.16;;;17.51;51.37
72465;BME280;60471;52.150;4.508;2023-04-22T08:44:16;100403.56;;;17.03;53.54
72465;BME280;60471;52.150;4.508;2023-04-22T08:46:43;100405.06;;;17.28;52.43
72465;BME280;60471;52.150;4.508;2023-04-22T08:49:14;100404.22;;;17.27;50.97
72465;BME280;60471;52.150;4.508;2023-04-22T08:51:42;100399.44;;;17.10;52.29
72465;BME280;60471;52.150;4.508;2023-04-22T08:54:10;100396.84;;;17.20;51.39
72465;BME280;60471;52.150;4.508;2023-04-22T08:56:42;100384.84;;;17.46;50.09
72465;BME280;60471;52.150;4.508;2023-04-22T08:59:10;100384.72;;;17.27;50.78
72465;BME280;60471;52.150;4.508;2023-04-22T09:01:39;100391.88;;;17.26;49.63
72465;BME280;60471;52.150;4.508;2023-04-22T09:04:08;100375.34;;;17.32;50.94
72465;BME280;60471;52.150;4.508;2023-04-22T09:06:36;100375.81;;;17.37;50.97
72465;BME280;60471;52.150;4.508;2023-04-22T09:09:03;100366.69;;;17.72;50.51
72465;BME280;60471;52.150;4.508;2023-04-22T09:11:31;100366.72;;;18.33;49.10
72465;BME280;60471;52.150;4.508;2023-04-22T09:13:58;100353.22;;;18.75;47.73
72465;BME280;60471;52.150;4.508;2023-04-22T09:16:24;100353.69;;;18.80;47.63
72465;BME280;60471;52.150;4.508;2023-04-22T09:18:50;100355.75;;;18.27;51.42
72465;BME280;60471;52.150;4.508;2023-04-22T09:21:16;100349.13;;;18.31;50.03
72465;BME280;60471;52.150;4.508;2023-04-22T09:23:48;100345.00;;;18.17;50.67
72465;BME280;60471;52.150;4.508;2023-04-22T09:26:23;100337.66;;;18.09;49.81
72465;BME280;60471;52.150;4.508;2023-04-22T09:28:52;100332.63;;;17.64;50.34
72465;BME280;60471;52.150;4.508;2023-04-22T09:31:21;100327.63;;;17.50;51.41
72465;BME280;60471;52.150;4.508;2023-04-22T09:33:57;100331.22;;;17.07;52.41
72465;BME280;60471;52.150;4.508;2023-04-22T09:38:54;100326.13;;;17.16;50.49
72465;BME280;60471;52.150;4.508;2023-04-22T09:41:29;100340.53;;;17.34;48.60
72465;BME280;60471;52.150;4.508;2023-04-22T09:43:57;100343.78;;;16.85;51.30
72465;BME280;60471;52.150;4.508;2023-04-22T09:46:26;100344.50;;;16.87;51.63
72465;BME280;60471;52.150;4.508;2023-04-22T09:48:59;100360.88;;;16.71;51.07
72465;BME280;60471;52.150;4.508;2023-04-22T09:51:27;100370.19;;;16.65;51.71
72465;BME280;60471;52.150;4.508;2023-04-22T09:54:03;100363.31;;;16.63;51.00
72465;BME280;60471;52.150;4.508;2023-04-22T09:56:47;100354.09;;;17.10;50.65
72465;BME280;60471;52.150;4.508;2023-04-22T10:01:50;100387.09;;;17.62;49.53
72465;BME280;60471;52.150;4.508;2023-04-22T10:04:18;100392.97;;;17.98;48.87
72465;BME280;60471;52.150;4.508;2023-04-22T10:06:53;100401.34;;;18.44;46.44
72465;BME280;60471;52.150;4.508;2023-04-22T10:09:21;100392.34;;;18.76;45.28
72465;BME280;60471;52.150;4.508;2023-04-22T10:11:50;100385.50;;;19.51;42.71
72465;BME280;60471;52.150;4.508;2023-04-22T10:14:23;100389.81;;;20.10;42.72
72465;BME280;60471;52.150;4.508;2023-04-22T10:16:53;100398.06;;;19.50;44.26
72465;BME280;60471;52.150;4.508;2023-04-22T10:19:24;100384.25;;;19.16;44.77
72465;BME280;60471;52.150;4.508;2023-04-22T10:21:56;100394.78;;;19.08;45.10
72465;BME280;60471;52.150;4.508;2023-04-22T10:24:27;100389.53;;;18.77;46.64
72465;BME280;60471;52.150;4.508;2023-04-22T10:26:55;100393.97;;;18.58;46.48
72465;BME280;60471;52.150;4.508;2023-04-22T10:29:24;100392.81;;;18.50;46.92
72465;BME280;60471;52.150;4.508;2023-04-22T10:32:07;100393.69;;;17.47;48.84
72465;BME280;60471;52.150;4.508;2023-04-22T10:35:09;100378.50;;;17.05;49.67
72465;BME280;60471;52.150;4.508;2023-04-22T10:37:40;100392.50;;;16.75;50.76
72465;BME280;60471;52.150;4.508;2023-04-22T10:40:10;100393.69;;;16.60;48.82
72465;BME280;60471;52.150;4.508;2023-04-22T10:42:52;100392.38;;;16.21;51.86
72465;BME280;60471;52.150;4.508;2023-04-22T10:45:23;100390.78;;;15.96;53.14
72465;BME280;60471;52.150;4.508;2023-04-22T10:47:50;100399.72;;;16.06;52.69
72465;BME280;60471;52.150;4.508;2023-04-22T10:50:24;100394.97;;;15.76;53.86
72465;BME280;60471;52.150;4.508;2023-04-22T10:52:59;100410.72;;;15.55;54.53
72465;BME280;60471;52.150;4.508;2023-04-22T10:55:50;100408.41;;;15.03;56.14
72465;BME280;60471;52.150;4.508;2023-04-22T10:58:18;100405.84;;;15.49;55.10
72465;BME280;60471;52.150;4.508;2023-04-22T11:00:45;100396.66;;;15.42;54.76
72465;BME280;60471;52.150;4.508;2023-04-22T11:03:15;100393.34;;;15.38;54.78
72465;BME280;60471;52.150;4.508;2023-04-22T11:05:42;100394.38;;;15.49;55.02
72465;BME280;60471;52.150;4.508;2023-04-22T11:08:16;100399.41;;;15.41;54.67
72465;BME280;60471;52.150;4.508;2023-04-22T11:10:48;100387.28;;;15.25;54.92
72465;BME280;60471;52.150;4.508;2023-04-22T11:13:18;100391.38;;;15.29;55.17
72465;BME280;60471;52.150;4.508;2023-04-22T11:15:50;100398.34;;;15.19;55.92
72465;BME280;60471;52.150;4.508;2023-04-22T11:18:24;100394.53;;;14.99;56.48
72465;BME280;60471;52.150;4.508;2023-04-22T11:20:52;100386.31;;;15.02;55.79
72465;BME280;60471;52.150;4.508;2023-04-22T11:23:25;100391.81;;;15.12;55.14
72465;BME280;60471;52.150;4.508;2023-04-22T11:26:04;100400.31;;;15.28;55.91
72465;BME280;60471;52.150;4.508;2023-04-22T11:28:31;100401.88;;;15.20;56.56
72465;BME280;60471;52.150;4.508;2023-04-22T11:31:07;100401.00;;;15.19;56.31
72465;BME280;60471;52.150;4.508;2023-04-22T11:33:36;100397.91;;;15.25;56.30
72465;BME280;60471;52.150;4.508;2023-04-22T11:36:09;100415.31;;;15.05;56.45
72465;BME280;60471;52.150;4.508;2023-04-22T11:38:36;100433.00;;;14.94;56.69
72465;BME280;60471;52.150;4.508;2023-04-22T11:41:02;100429.13;;;14.74;56.57
72465;BME280;60471;52.150;4.508;2023-04-22T11:43:29;100443.91;;;14.53;58.73
72465;BME280;60471;52.150;4.508;2023-04-22T11:45:56;100461.19;;;13.82;61.87
72465;BME280;60471;52.150;4.508;2023-04-22T11:48:22;100441.31;;;13.62;63.60
72465;BME280;60471;52.150;4.508;2023-04-22T11:51:06;100426.94;;;13.79;64.48
72465;BME280;60471;52.150;4.508;2023-04-22T11:53:35;100424.16;;;13.80;64.49
72465;BME280;60471;52.150;4.508;2023-04-22T11:56:02;100408.88;;;13.84;64.80
72465;BME280;60471;52.150;4.508;2023-04-22T11:58:28;100390.31;;;13.97;65.11
72465;BME280;60471;52.150;4.508;2023-04-22T12:00:57;100388.22;;;14.02;64.81
72465;BME280;60471;52.150;4.508;2023-04-22T12:03:28;100399.97;;;13.85;65.06
72465;BME280;60471;52.150;4.508;2023-04-22T12:06:02;100441.16;;;13.51;66.51
72465;BME280;60471;52.150;4.508;2023-04-22T12:11:00;100390.16;;;13.47;68.29
72465;BME280;60471;52.150;4.508;2023-04-22T12:13:29;100397.56;;;13.42;67.88
72465;BME280;60471;52.150;4.508;2023-04-22T12:16:11;100414.41;;;13.41;67.53
72465;BME280;60471;52.150;4.508;2023-04-22T12:18:47;100410.41;;;13.48;67.64
72465;BME280;60471;52.150;4.508;2023-04-22T12:21:19;100400.06;;;13.71;67.33
72465;BME280;60471;52.150;4.508;2023-04-22T12:23:50;100381.50;;;13.83;67.57
72465;BME280;60471;52.150;4.508;2023-04-22T12:26:25;100371.03;;;13.82;67.49
72465;BME280;60471;52.150;4.508;2023-04-22T12:28:52;100373.66;;;13.82;67.22
72465;BME280;60471;52.150;4.508;2023-04-22T12:31:19;100374.63;;;13.81;67.22
72465;BME280;60471;52.150;4.508;2023-04-22T12:33:46;100365.81;;;14.06;65.95
72465;BME280;60471;52.150;4.508;2023-04-22T12:36:12;100369.94;;;14.23;64.91
72465;BME280;60471;52.150;4.508;2023-04-22T12:38:39;100367.28;;;14.10;65.64
72465;BME280;60471;52.150;4.508;2023-04-22T12:41:06;100374.56;;;14.32;65.09
72465;BME280;60471;52.150;4.508;2023-04-22T12:43:33;100381.94;;;14.15;65.11
72465;BME280;60471;52.150;4.508;2023-04-22T12:46:02;100390.72;;;14.29;65.34
72465;BME280;60471;52.150;4.508;2023-04-22T12:48:29;100386.91;;;14.33;65.65
72465;BME280;60471;52.150;4.508;2023-04-22T12:50:55;100386.81;;;14.34;64.78
72465;BME280;60471;52.150;4.508;2023-04-22T12:53:22;100386.72;;;14.23;66.28
72465;BME280;60471;52.150;4.508;2023-04-22T12:55:48;100369.28;;;14.81;64.77
72465;BME280;60471;52.150;4.508;2023-04-22T12:58:15;100363.25;;;15.03;63.38
72465;BME280;60471;52.150;4.508;2023-04-22T13:00:41;100372.00;;;14.92;64.65
72465;BME280;60471;52.150;4.508;2023-04-22T13:03:07;100371.53;;;14.74;65.20